Time;durP1;ratioP1;P1;durP2;ratioP2;P2;SDS_P1;SDS_P2;PMS_P1;PMS_P2;Temp;Humidity;BMP_temperature;BMP_pressure;BME280_temperature;BME280_humidity;BME280_pressure;Samples;Min_cycle;Max_cycle;Signal;HPM_P1;HPM_P2
2021/05/05 00:03:35;;;;;;;1.32;0.88;;;;;;;13.10;65.97;98774.38;2851552;81;21199;-66
2021/05/05 00:07:39;;;;;;;1.00;0.90;;;;;;;13.23;66.00;98777.77;2845416;83;21221;-66
2021/05/05 00:11:43;;;;;;;1.35;1.02;;;;;;;13.29;65.54;98784.56;2845565;83;21157;-66
2021/05/05 00:15:47;;;;;;;3.15;0.75;;;;;;;13.41;63.69;98780.95;2801562;83;21210;-66
2021/05/05 00:19:51;;;;;;;1.87;0.82;;;;;;;13.53;60.76;98776.55;2849515;81;21221;-66
2021/05/05 00:23:54;;;;;;;1.42;0.95;;;;;;;13.53;57.34;98781.36;2894432;82;21169;-66
2021/05/05 00:27:57;;;;;;;7.85;1.87;;;;;;;13.54;55.75;98779.02;2820407;84;21149;-65
2021/05/05 00:32:00;;;;;;;2.47;1.00;;;;;;;13.52;55.48;98773.03;2840330;83;21177;-66
2021/05/05 00:36:04;;;;;;;1.98;0.85;;;;;;;13.47;55.84;98772.75;2840644;83;21129;-66
2021/05/05 00:40:29;;;;;;;3.22;1.30;;;;;;;13.39;56.11;98760.80;2840718;83;21138;-66
2021/05/05 00:44:33;;;;;;;8.15;1.98;;;;;;;13.33;56.50;98764.17;2777509;85;21207;-66
2021/05/05 00:48:38;;;;;;;1.27;0.62;;;;;;;13.31;56.39;98776.88;2845110;83;21638;-66
2021/05/05 00:52:43;;;;;;;5.50;1.50;;;;;;;13.24;56.88;98760.25;2845270;83;21137;-68
2021/05/05 00:56:49;;;;;;;3.67;1.50;;;;;;;13.22;57.37;98766.77;2824369;84;21129;-66
2021/05/05 01:00:51;;;;;;;;;;;;;;;13.19;57.64;98762.64;2847718;83;21181;-66
2021/05/05 01:04:56;;;;;;;7.12;1.20;;;;;;;13.20;57.55;98753.62;2822365;84;20126;-67
2021/05/05 01:08:59;;;;;;;4.47;1.17;;;;;;;13.20;58.09;98761.63;2826973;84;21209;-67
2021/05/05 01:13:02;;;;;;;1.22;1.10;;;;;;;13.20;58.49;98760.30;2822105;84;21188;-66
2021/05/05 01:17:06;;;;;;;6.35;1.60;;;;;;;13.20;59.28;98763.45;2827075;84;21152;-66
2021/05/05 01:21:09;;;;;;;5.87;1.10;;;;;;;13.14;60.12;98759.66;2822116;84;21228;-66
2021/05/05 01:25:17;;;;;;;6.37;1.17;;;;;;;13.09;60.60;98768.23;2826769;84;21203;-66
2021/05/05 01:29:19;;;;;;;2.55;0.90;;;;;;;13.04;61.28;98768.44;2822178;84;21125;-67
2021/05/05 01:33:25;;;;;;;0.47;0.37;;;;;;;13.00;61.66;98750.60;2826750;84;21634;-66
2021/05/05 01:37:29;;;;;;;4.08;1.32;;;;;;;12.95;62.23;98744.46;2821992;84;21124;-66
2021/05/05 01:41:34;;;;;;;3.77;1.62;;;;;;;12.89;62.51;98743.85;2821985;83;21197;-67
2021/05/05 01:45:38;;;;;;;1.67;1.20;;;;;;;12.86;62.77;98740.21;2822525;83;21140;-66
2021/05/05 01:49:45;;;;;;;2.47;1.17;;;;;;;12.82;63.12;98734.91;2821744;84;21161;-66
2021/05/05 01:53:50;;;;;;;1.75;0.85;;;;;;;12.82;63.43;98730.91;2821374;84;21192;-66
2021/05/05 01:57:55;;;;;;;2.03;1.27;;;;;;;12.83;63.62;98730.72;2822182;84;21157;-67
2021/05/05 02:02:00;;;;;;;3.80;1.65;;;;;;;12.86;63.82;98726.87;2821863;83;21125;-66
2021/05/05 02:06:04;;;;;;;1.77;0.70;;;;;;;12.86;64.01;98732.20;2821765;83;21164;-66
2021/05/05 02:10:12;;;;;;;0.88;0.80;;;;;;;12.85;64.20;98737.22;2821909;83;21180;-65
2021/05/05 02:14:15;;;;;;;3.95;1.47;;;;;;;12.83;64.60;98737.91;2822252;84;21140;-66
2021/05/05 02:18:17;;;;;;;4.90;1.10;;;;;;;12.78;64.66;98732.28;2821865;83;21188;-66
2021/05/05 02:22:21;;;;;;;1.52;0.98;;;;;;;12.65;65.06;98723.02;2821732;84;21189;-65
2021/05/05 02:26:24;;;;;;;1.75;0.60;;;;;;;12.55;65.42;98722.41;2821596;84;21161;-67
2021/05/05 02:30:27;;;;;;;1.90;1.12;;;;;;;12.43;66.10;98730.84;2822083;83;21570;-66
2021/05/05 02:34:32;;;;;;;1.70;0.73;;;;;;;12.39;66.75;98730.87;2821894;84;21153;-66
2021/05/05 02:38:35;;;;;;;0.85;0.68;;;;;;;12.38;67.38;98727.87;2821680;83;21165;-65
2021/05/05 02:42:38;;;;;;;1.27;1.02;;;;;;;12.37;67.87;98723.52;2840192;83;21160;-66
2021/05/05 02:46:41;;;;;;;3.83;0.70;;;;;;;12.39;68.17;98722.88;2864589;83;21160;-66
2021/05/05 02:50:44;;;;;;;2.60;0.78;;;;;;;12.42;68.33;98713.17;2864761;83;21156;-65
2021/05/05 02:54:47;;;;;;;2.33;0.78;;;;;;;12.46;68.36;98722.97;2864728;83;21172;-66
2021/05/05 02:58:50;;;;;;;2.27;1.32;;;;;;;12.50;68.26;98719.45;2864485;82;21156;-67
2021/05/05 03:02:54;;;;;;;0.70;0.60;;;;;;;12.48;68.20;98716.98;2836439;83;21133;-66
2021/05/05 03:06:58;;;;;;;0.40;0.40;;;;;;;12.45;68.10;98718.64;2864696;83;21141;-64
2021/05/05 03:11:02;;;;;;;2.20;0.62;;;;;;;12.36;68.11;98713.86;2864696;83;21161;-64
2021/05/05 03:15:10;;;;;;;0.72;0.57;;;;;;;12.27;68.17;98708.27;2864370;83;21128;-65
2021/05/05 03:19:13;;;;;;;0.47;0.42;;;;;;;12.21;68.16;98703.13;2864509;82;21184;-61
2021/05/05 03:23:16;;;;;;;1.05;0.60;;;;;;;12.08;68.38;98717.03;2864301;83;21140;-61
2021/05/05 03:27:20;;;;;;;4.10;1.47;;;;;;;11.95;68.71;98717.56;2864529;83;21164;-62
2021/05/05 03:31:25;;;;;;;0.50;0.50;;;;;;;11.80;69.02;98710.80;2864583;83;21216;-61
2021/05/05 03:35:31;;;;;;;1.95;1.17;;;;;;;11.70;69.30;98706.16;2864678;83;21575;-61
2021/05/05 03:39:33;;;;;;;3.62;1.07;;;;;;;11.57;69.58;98709.38;2864936;83;21164;-61
2021/05/05 03:43:38;;;;;;;1.20;0.68;;;;;;;11.50;69.78;98705.23;2864370;83;21587;-62
2021/05/05 03:47:44;;;;;;;0.62;0.60;;;;;;;11.45;70.10;98722.22;2772255;84;21183;-61
2021/05/05 03:51:48;;;;;;;0.65;0.60;;;;;;;11.43;70.38;98717.05;2774342;84;21606;-61
2021/05/05 03:55:52;;;;;;;1.50;1.37;;;;;;;11.49;70.58;98718.20;2772683;85;21582;-61
2021/05/05 03:59:55;;;;;;;0.98;0.80;;;;;;;11.62;70.89;98725.66;2724769;87;21186;-61
2021/05/05 04:03:58;;;;;;;1.32;0.82;;;;;;;11.79;71.17;98736.27;2773510;84;21189;-61
2021/05/05 04:08:03;;;;;;;2.00;0.88;;;;;;;11.99;70.98;98738.04;2774057;85;21153;-60
2021/05/05 04:12:08;;;;;;;4.45;1.20;;;;;;;12.18;69.53;98737.29;2774096;85;21149;-62
2021/05/05 04:16:12;;;;;;;0.88;0.88;;;;;;;12.20;69.24;98743.30;2772096;85;21188;-61
2021/05/05 04:20:34;;;;;;;1.47;0.95;;;;;;;12.19;69.46;98734.47;2749583;85;21122;-62
2021/05/05 04:24:56;;;;;;;3.72;1.77;;;;;;;12.32;69.10;98732.56;2774027;85;21192;-62
2021/05/05 04:29:01;;;;;;;2.80;1.42;;;;;;;12.32;68.62;98735.22;2773846;85;21145;-61
2021/05/05 04:33:06;;;;;;;1.95;1.02;;;;;;;12.29;68.42;98747.58;2773591;85;21618;-61
2021/05/05 04:37:08;;;;;;;3.40;1.72;;;;;;;12.30;68.59;98749.75;2747344;85;21188;-62
2021/05/05 04:41:13;;;;;;;2.40;0.90;;;;;;;12.35;68.57;98748.72;2773939;85;21204;-60
2021/05/05 04:45:16;;;;;;;3.92;1.67;;;;;;;12.42;68.81;98747.84;2774714;85;21161;-59
2021/05/05 04:49:19;;;;;;;1.50;1.20;;;;;;;12.55;68.78;98748.59;2778072;85;21192;-60
2021/05/05 04:57:36;;;;;;;2.77;1.37;;;;;;;13.35;68.32;98724.76;2997045;77;22913;-59
2021/05/05 05:01:39;;;;;;;3.67;1.32;;;;;;;13.44;67.24;98730.39;2951565;80;21118;-60
2021/05/05 05:05:42;;;;;;;3.10;1.07;;;;;;;13.55;67.09;98739.27;2952692;79;21074;-59
2021/05/05 05:09:45;;;;;;;1.62;1.32;;;;;;;13.62;67.11;98732.69;2953114;79;21356;-60
2021/05/05 05:14:21;;;;;;;2.15;1.47;;;;;;;13.71;66.98;98734.77;2952756;80;21536;-59
2021/05/05 05:18:26;;;;;;;1.72;0.93;;;;;;;13.74;67.08;98742.41;2953585;80;21078;-61
2021/05/05 05:23:05;;;;;;;3.37;1.90;;;;;;;13.77;67.54;98736.72;2953128;80;21105;-61
2021/05/05 05:27:09;;;;;;;2.15;1.50;;;;;;;13.96;68.29;98734.50;2915752;80;21125;-61
2021/05/05 05:31:11;;;;;;;5.92;3.75;;;;;;;14.36;68.06;98732.80;2912691;80;21177;-61
2021/05/05 05:35:16;;;;;;;7.08;4.03;;;;;;;14.67;66.48;98727.16;2951983;79;21531;-61
2021/05/05 05:39:19;;;;;;;5.15;3.58;;;;;;;14.79;64.94;98729.36;2944651;79;21580;-62
2021/05/05 05:44:01;;;;;;;13.22;3.02;;;;;;;14.84;64.75;98728.27;2913444;80;21202;-61
2021/05/05 05:48:06;;;;;;;4.20;2.27;;;;;;;15.31;65.16;98727.81;2919997;80;21097;-61
2021/05/05 05:52:41;;;;;;;4.58;1.90;;;;;;;15.94;64.16;98732.38;2945958;79;21587;-61
2021/05/05 05:56:44;;;;;;;3.52;1.30;;;;;;;16.68;62.34;98737.97;2933452;78;21132;-61
2021/05/05 06:00:47;;;;;;;1.15;0.90;;;;;;;17.55;59.93;98738.02;2958168;78;21101;-62
2021/05/05 06:04:50;;;;;;;5.03;1.67;;;;;;;17.73;56.23;98738.38;2904592;80;21136;-61
2021/05/05 06:08:53;;;;;;;1.00;0.60;;;;;;;17.41;53.28;98749.81;2899084;80;21176;-60
2021/05/05 06:12:58;;;;;;;1.62;0.60;;;;;;;17.11;53.92;98740.31;2914777;81;21557;-61
2021/05/05 06:17:04;;;;;;;4.83;0.85;;;;;;;17.07;53.02;98751.16;2919081;80;21967;-61
2021/05/05 06:21:07;;;;;;;0.88;0.72;;;;;;;17.15;51.38;98748.80;2907315;80;21163;-61
2021/05/05 06:25:11;;;;;;;2.33;0.80;;;;;;;17.47;51.20;98740.09;2880651;80;21080;-62
2021/05/05 06:29:14;;;;;;;1.50;0.75;;;;;;;17.62;50.84;98734.47;2917082;81;21144;-61
2021/05/05 06:33:16;;;;;;;1.60;0.88;;;;;;;17.36;49.61;98752.30;2885276;81;21128;-61
2021/05/05 06:37:21;;;;;;;1.77;0.85;;;;;;;17.06;51.50;98756.23;2895721;80;21144;-61
2021/05/05 06:41:24;;;;;;;2.67;1.07;;;;;;;16.76;51.95;98751.72;2874289;81;21131;-61
2021/05/05 06:45:28;;;;;;;0.70;0.50;;;;;;;16.54;53.20;98750.55;2920532;80;21157;-61
2021/05/05 06:49:34;;;;;;;1.85;0.88;;;;;;;16.38;53.24;98747.19;2900142;80;21167;-61
2021/05/05 06:53:36;;;;;;;1.60;0.78;;;;;;;16.26;53.06;98740.73;2888955;81;21152;-61
2021/05/05 06:57:39;;;;;;;2.22;0.82;;;;;;;16.12;53.65;98736.68;2881592;80;21180;-61
2021/05/05 07:01:42;;;;;;;2.37;1.17;;;;;;;16.05;52.62;98739.02;2890587;80;21148;-61
2021/05/05 07:05:45;;;;;;;2.62;1.25;;;;;;;15.92;52.80;98725.05;2890015;80;21160;-61
2021/05/05 07:09:51;;;;;;;7.03;1.05;;;;;;;15.79;54.65;98718.55;2883470;81;21136;-62
2021/05/05 07:13:54;;;;;;;5.97;1.42;;;;;;;15.81;52.37;98715.15;2885496;80;21117;-62
2021/05/05 07:17:57;;;;;;;2.08;1.00;;;;;;;15.92;53.89;98726.38;2876042;80;21129;-61
2021/05/05 07:22:00;;;;;;;1.75;1.20;;;;;;;15.96;52.47;98728.45;2881825;80;21188;-61
2021/05/05 07:26:03;;;;;;;1.00;0.60;;;;;;;15.98;51.96;98714.31;2878778;80;21148;-61
2021/05/05 07:30:09;;;;;;;4.22;0.95;;;;;;;15.89;51.15;98708.83;2878307;82;21136;-61
2021/05/05 07:34:14;;;;;;;1.20;0.42;;;;;;;15.69;50.55;98711.36;2871999;82;21571;-61
2021/05/05 07:50:48;;;;;;;1.05;0.62;;;;;;;15.80;52.97;98699.25;2864212;80;20181;-61
2021/05/05 07:54:52;;;;;;;1.25;0.80;;;;;;;15.81;52.99;98690.18;2879805;80;21199;-61
2021/05/05 07:58:54;;;;;;;2.08;0.80;;;;;;;15.67;51.28;98687.95;2882241;81;21120;-61
2021/05/05 08:02:56;;;;;;;1.20;0.90;;;;;;;15.49;52.11;98701.88;2887382;80;21140;-61
2021/05/05 08:07:02;;;;;;;;;;;;;;;15.41;54.69;98704.20;2898797;81;21164;-61
2021/05/05 08:11:05;;;;;;;2.05;0.88;;;;;;;15.39;57.31;98708.41;2865249;80;20161;-61
2021/05/05 08:15:13;;;;;;;5.78;1.57;;;;;;;15.41;57.58;98714.39;2909132;80;21144;-61
2021/05/05 08:19:16;;;;;;;2.20;0.82;;;;;;;15.46;56.73;98715.67;2877292;81;21140;-60
2021/05/05 08:23:19;;;;;;;1.90;1.15;;;;;;;15.48;55.23;98713.09;2895505;80;21136;-61
2021/05/05 08:27:23;;;;;;;1.07;0.90;;;;;;;15.52;56.49;98718.91;2861137;81;21606;-61
2021/05/05 08:31:26;;;;;;;1.10;0.90;;;;;;;15.58;54.70;98723.99;2883670;80;21121;-61
2021/05/05 08:35:30;;;;;;;3.80;1.22;;;;;;;15.67;54.66;98722.80;2879491;81;21120;-61
2021/05/05 08:39:33;;;;;;;1.62;1.02;;;;;;;15.74;53.87;98721.50;2905493;80;21641;-61
2021/05/05 08:43:37;;;;;;;1.67;1.00;;;;;;;15.82;54.05;98719.48;2868062;80;21116;-61
2021/05/05 08:47:43;;;;;;;1.10;0.70;;;;;;;15.97;54.38;98721.24;2890662;80;21144;-61
2021/05/05 08:51:47;;;;;;;4.67;0.88;;;;;;;16.06;51.59;98722.71;2870782;80;21172;-61
2021/05/05 08:55:50;;;;;;;1.55;0.80;;;;;;;15.98;50.10;98715.66;2890530;80;21599;-62
2021/05/05 08:59:53;;;;;;;3.72;1.30;;;;;;;15.95;52.49;98718.75;2877438;81;21284;-61
2021/05/05 09:03:58;;;;;;;1.87;1.15;;;;;;;15.80;51.26;98716.17;2909168;81;21152;-61
2021/05/05 09:08:12;;;;;;;0.98;0.82;;;;;;;15.65;52.90;98706.93;2909175;81;21112;-61
2021/05/05 09:12:25;;;;;;;4.00;1.12;;;;;;;15.65;55.04;98704.75;2889574;80;21132;-61
2021/05/05 09:16:31;;;;;;;2.42;1.45;;;;;;;15.84;54.92;98699.19;2891437;80;21167;-61
2021/05/05 09:20:35;;;;;;;11.10;1.60;;;;;;;16.15;55.27;98699.22;2902381;80;21479;-61
2021/05/05 09:24:43;;;;;;;2.87;0.88;;;;;;;16.55;53.63;98703.88;2813679;83;21157;-61
2021/05/05 09:28:52;;;;;;;2.25;1.02;;;;;;;16.78;51.22;98702.14;2890179;80;21102;-62
2021/05/05 09:32:58;;;;;;;1.12;0.70;;;;;;;16.81;49.28;98720.55;2907122;81;21144;-61
2021/05/05 09:37:07;;;;;;;0.93;0.72;;;;;;;16.73;49.52;98722.07;2887558;80;21168;-61
2021/05/05 09:41:19;;;;;;;0.93;0.75;;;;;;;16.44;50.21;98720.56;2889549;80;21148;-61
2021/05/05 09:45:26;;;;;;;6.87;1.10;;;;;;;16.17;51.64;98727.20;2869974;80;21172;-61
2021/05/05 09:49:35;;;;;;;2.17;0.98;;;;;;;15.94;52.18;98732.38;2883253;80;21144;-61
2021/05/05 09:53:39;;;;;;;1.62;1.15;;;;;;;15.85;53.08;98735.17;2888675;80;21149;-61
2021/05/05 09:57:42;;;;;;;5.50;1.52;;;;;;;15.80;52.32;98734.95;2879822;80;21141;-62
2021/05/05 10:02:00;;;;;;;3.92;1.72;;;;;;;15.75;52.56;98736.55;2875978;80;21117;-61
2021/05/05 10:06:26;;;;;;;5.17;2.08;;;;;;;15.71;52.87;98743.66;2883926;80;21158;-61
2021/05/05 10:14:54;;;;;;;5.33;1.85;;;;;;;15.61;53.25;98737.80;3037990;76;21133;-61
2021/05/05 10:19:00;;;;;;;1.52;0.93;;;;;;;15.62;53.86;98735.97;2992832;77;22249;-60
2021/05/05 10:23:05;;;;;;;1.67;1.00;;;;;;;15.64;52.79;98743.30;2880326;80;21140;-60
2021/05/05 10:27:08;;;;;;;1.37;1.00;;;;;;;15.60;53.26;98743.38;2924416;79;21148;-60
2021/05/05 10:31:18;;;;;;;5.60;1.90;;;;;;;15.52;54.15;98739.00;2927740;80;21164;-60
2021/05/05 10:35:19;;;;;;;6.60;2.58;;;;;;;15.44;53.91;98741.31;2873981;80;21174;-60
2021/05/05 10:39:26;;;;;;;;;;;;;;;15.44;54.04;98744.52;2881819;80;21138;-60
2021/05/05 10:43:51;;;;;;;3.63;1.77;;;;;;;15.45;54.71;98736.80;2867636;80;20159;-60
2021/05/05 10:48:11;;;;;;;3.60;1.60;;;;;;;15.44;54.59;98740.50;2856531;80;21216;-60
2021/05/05 10:52:15;;;;;;;1.45;1.35;;;;;;;15.42;55.74;98735.33;2864616;82;21173;-60
2021/05/05 10:56:27;;;;;;;2.73;1.17;;;;;;;15.46;53.36;98738.45;2859634;80;21163;-60
2021/05/05 11:00:53;;;;;;;6.20;2.40;;;;;;;15.84;56.92;98734.05;2880057;82;21160;-61
2021/05/05 11:05:11;;;;;;;6.65;1.95;;;;;;;16.42;55.25;98730.98;2828743;80;21151;-60
2021/05/05 11:09:19;;;;;;;7.97;2.02;;;;;;;16.78;51.88;98718.78;2814793;82;21193;-60
2021/05/05 11:13:30;;;;;;;3.25;1.62;;;;;;;17.02;51.57;98713.86;2822185;82;21200;-59
2021/05/05 11:17:34;;;;;;;5.67;1.42;;;;;;;17.30;50.23;98710.95;2817067;82;21583;-59
2021/05/05 11:21:40;;;;;;;3.37;1.37;;;;;;;17.46;50.86;98705.65;2831563;82;21236;-59
2021/05/05 11:25:43;;;;;;;5.97;1.10;;;;;;;17.45;49.02;98695.13;2816573;83;21157;-59
2021/05/05 11:29:54;;;;;;;2.17;1.87;;;;;;;17.28;46.73;98695.56;2817122;83;21136;-59
2021/05/05 11:34:03;;;;;;;3.15;1.82;;;;;;;17.21;51.06;98711.69;2821731;82;21632;-59
2021/05/05 11:38:12;;;;;;;3.70;1.22;;;;;;;17.28;49.29;98695.03;2821115;82;21134;-60
2021/05/05 11:42:24;;;;;;;1.92;1.35;;;;;;;17.17;49.23;98704.23;2825167;82;21129;-59
2021/05/05 11:46:29;;;;;;;2.90;1.30;;;;;;;16.93;48.58;98715.39;2828359;82;21152;-60
2021/05/05 11:50:35;;;;;;;1.55;1.02;;;;;;;16.73;50.04;98708.64;2824885;82;21155;-60
2021/05/05 11:54:40;;;;;;;;;;;;;;;16.65;51.13;98709.66;2836156;82;21172;-59
2021/05/05 11:58:57;;;;;;;7.62;2.33;;;;;;;16.59;50.55;98714.52;2819877;82;20132;-59
2021/05/05 12:03:03;;;;;;;3.67;2.12;;;;;;;16.37;52.17;98726.75;2838453;82;21562;-59
2021/05/05 12:07:10;;;;;;;10.25;3.90;;;;;;;15.70;55.35;98727.26;2827326;82;21188;-59
2021/05/05 12:11:13;;;;;;;5.17;3.30;;;;;;;15.50;57.41;98722.30;2826181;82;21156;-59
2021/05/05 12:15:21;;;;;;;2.17;1.60;;;;;;;15.56;57.37;98709.44;2826372;82;21141;-59
2021/05/05 12:19:25;;;;;;;3.47;1.77;;;;;;;15.57;53.24;98724.48;2813515;83;21567;-59
2021/05/05 12:23:44;;;;;;;5.22;2.55;;;;;;;15.58;54.38;98726.14;2870946;82;21166;-59
2021/05/05 12:28:19;;;;;;;3.15;1.20;;;;;;;15.72;57.42;98732.41;2862407;82;21939;-59
2021/05/05 12:32:26;;;;;;;3.47;1.60;;;;;;;15.80;55.29;98728.73;2827465;82;21158;-60
2021/05/05 12:36:33;;;;;;;2.95;1.30;;;;;;;15.81;56.07;98733.91;2823395;83;21134;-59
2021/05/05 12:40:37;;;;;;;3.42;1.87;;;;;;;15.76;55.44;98731.01;2848934;83;21153;-59
2021/05/05 12:44:42;;;;;;;5.65;2.35;;;;;;;15.88;57.22;98733.11;2848768;83;21133;-60
2021/05/05 12:48:45;;;;;;;4.45;1.70;;;;;;;15.74;57.68;98738.42;2830210;82;21906;-60
2021/05/05 12:52:51;;;;;;;3.60;1.72;;;;;;;15.57;57.79;98727.17;2854977;82;21166;-60
2021/05/05 12:56:54;;;;;;;2.70;1.30;;;;;;;15.53;57.23;98736.14;2835128;82;21128;-58
2021/05/05 13:01:03;;;;;;;3.47;1.70;;;;;;;15.34;57.14;98720.75;2847997;83;21142;-60
2021/05/05 13:05:12;;;;;;;4.70;2.05;;;;;;;15.36;57.11;98703.44;2846344;83;21670;-60
2021/05/05 13:09:39;;;;;;;10.65;2.20;;;;;;;15.55;56.64;98713.14;2847561;83;21177;-60
2021/05/05 13:14:07;;;;;;;1.95;1.55;;;;;;;15.47;55.21;98714.13;2766365;85;21175;-59
2021/05/05 13:35:55;;;;;;;6.00;2.40;;;;;;;14.69;56.97;98716.27;3065154;77;22782;-59
2021/05/05 13:39:57;;;;;;;2.45;1.52;;;;;;;14.59;56.17;98716.59;3019327;78;21117;-60
2021/05/05 13:44:04;;;;;;;2.92;1.47;;;;;;;14.59;56.09;98707.22;2958522;80;21605;-59
2021/05/05 13:48:24;;;;;;;2.35;1.72;;;;;;;14.52;55.70;98707.15;2908322;81;21166;-60
2021/05/05 13:52:18;;;;;;;2.10;1.30;;;;;;;14.35;56.25;98723.95;2932753;79;21165;-60
2021/05/05 13:56:30;;;;;;;2.58;1.42;;;;;;;14.09;56.62;98726.63;2917343;79;21595;-61
2021/05/05 14:00:40;;;;;;;3.42;1.67;;;;;;;14.11;57.51;98713.08;2942460;80;21624;-60
2021/05/05 14:04:44;;;;;;;4.62;1.65;;;;;;;14.27;57.94;98723.56;2880628;81;21185;-60
2021/05/05 14:08:55;;;;;;;1.55;1.20;;;;;;;14.46;55.59;98719.12;2921425;80;21161;-60
2021/05/05 14:13:06;;;;;;;9.05;3.08;;;;;;;14.66;56.42;98714.80;2865676;82;21177;-55
2021/05/05 14:17:10;;;;;;;2.72;1.65;;;;;;;14.95;57.58;98734.95;2855497;82;21494;-57
2021/05/05 14:21:17;;;;;;;3.27;2.00;;;;;;;15.20;57.38;98736.72;2899006;79;21139;-58
2021/05/05 14:25:18;;;;;;;3.80;1.42;;;;;;;15.37;54.58;98734.56;2907097;81;21698;-58
2021/05/05 14:29:23;;;;;;;2.42;1.80;;;;;;;15.54;55.35;98740.47;2907816;81;21576;-58
2021/05/05 14:33:26;;;;;;;4.33;2.10;;;;;;;15.69;55.80;98739.01;2909232;81;21177;-57
2021/05/05 14:37:54;;;;;;;2.37;1.25;;;;;;;15.82;55.73;98743.61;2914370;81;21106;-58
2021/05/05 14:41:53;;;;;;;5.03;1.32;;;;;;;15.48;52.98;98743.91;2719080;87;21207;-58
2021/05/05 14:46:02;;;;;;;2.52;1.17;;;;;;;15.25;48.71;98740.97;2718506;87;21164;-58
2021/05/05 14:50:01;;;;;;;1.50;1.40;;;;;;;14.93;50.49;98742.36;2718411;87;21171;-58
2021/05/05 14:54:07;;;;;;;1.60;1.02;;;;;;;14.75;52.55;98741.48;2717901;87;21159;-58
2021/05/05 14:58:15;;;;;;;2.98;1.40;;;;;;;14.58;52.24;98751.05;2718318;87;21637;-58
2021/05/05 15:02:19;;;;;;;3.08;1.50;;;;;;;14.43;53.71;98779.16;2717911;87;21144;-58
2021/05/05 15:36:20;;;;;;;1.40;0.95;;;;;;;12.86;51.98;98858.96;2951814;80;21168;-58
2021/05/05 15:40:33;;;;;;;5.15;1.82;;;;;;;12.84;51.81;98875.66;2951660;79;21608;-58
2021/05/05 15:48:35;;;;;;;5.70;1.57;;;;;;;12.93;55.61;98869.25;2951895;80;21137;-58
2021/05/05 15:52:44;;;;;;;4.22;1.62;;;;;;;12.83;56.93;98908.16;2951996;79;21515;-58
2021/05/05 15:56:47;;;;;;;1.82;1.12;;;;;;;12.68;57.59;98881.91;2951409;80;21129;-58
2021/05/05 16:01:02;;;;;;;8.93;1.75;;;;;;;12.61;57.47;98906.27;2951659;80;21457;-58
2021/05/05 16:17:47;;;;;;;1.65;0.80;;;;;;;11.96;58.04;98900.91;2923802;81;21176;-58
2021/05/05 16:26:20;;;;;;;1.00;0.40;;;;;;;11.89;58.92;98871.95;2999673;79;22673;-58
2021/05/05 16:43:31;;;;;;;2.25;1.05;;;;;;;12.43;56.37;98892.66;2951142;80;21572;-58
2021/05/05 16:47:31;;;;;;;1.22;0.98;;;;;;;12.36;56.61;98903.18;2950112;80;21556;-58
2021/05/05 17:00:44;;;;;;;3.40;1.20;;;;;;;12.06;57.69;98928.73;2951179;80;21591;-59
2021/05/05 17:13:03;;;;;;;3.08;1.15;;;;;;;11.65;58.48;98923.73;2900235;81;21149;-59
2021/05/05 17:17:13;;;;;;;2.02;1.27;;;;;;;11.46;59.32;98924.91;2899810;82;21161;-58
2021/05/05 17:25:21;;;;;;;2.42;1.42;;;;;;;11.06;60.89;98931.83;2894271;81;21153;-59
2021/05/05 18:21:38;;;;;;;2.47;1.32;;;;;;;10.17;59.54;99002.47;2930074;80;21164;-58
2021/05/05 18:26:01;;;;;;;7.53;1.30;;;;;;;10.06;59.83;99000.89;2926499;79;21598;-59
2021/05/05 18:29:53;;;;;;;2.07;0.93;;;;;;;9.93;60.00;99004.80;2854593;80;22191;-57
2021/05/05 18:33:56;;;;;;;1.95;0.90;;;;;;;9.79;60.73;99002.16;2839630;81;21476;-57
2021/05/05 18:38:02;;;;;;;1.57;1.22;;;;;;;9.67;61.29;99018.00;2917857;79;21189;-57
2021/05/05 19:34:34;;;;;;;2.83;2.08;;;;;;;9.08;65.03;99092.13;2888515;80;21116;-61
2021/05/05 22:48:41;;;;;;;2.25;1.62;;;;;;;7.38;72.66;99358.34;2943415;80;21157;-57
2021/05/05 22:52:58;;;;;;;4.92;2.72;;;;;;;7.36;72.69;99359.78;2936991;80;21117;-57
2021/05/05 23:22:25;;;;;;;1.87;1.65;;;;;;;7.38;71.93;99386.13;2938045;79;21141;-59
2021/05/05 23:35:17;;;;;;;4.45;2.12;;;;;;;7.23;71.76;99381.63;3021494;78;21531;-57
2021/05/05 23:39:34;;;;;;;3.98;1.50;;;;;;;7.20;71.65;99384.53;3017211;78;21090;-57
2021/05/05 23:56:35;;;;;;;3.58;2.20;;;;;;;7.18;71.30;99390.44;2967992;80;21563;-57
